Time;durP1;ratioP1;P1;durP2;ratioP2;P2;SDS_P1;SDS_P2;PMS_P1;PMS_P2;Temp;Humidity;BMP_temperature;BMP_pressure;BME280_temperature;BME280_humidity;BME280_pressure;Samples;Min_cycle;Max_cycle;Signal;HPM_P1;HPM_P2
2022/02/26 00:01:23;;;;;;;;;;;;;;;;;;2191932;67;2226;-70
2022/02/26 00:03:57;;;;;;;;;;;;;;;;;;2193808;67;1932;-71
2022/02/26 00:06:30;;;;;;;;;;;;;;;;;;2191573;67;1581;-72
2022/02/26 00:09:04;;;;;;;;;;;;;;;;;;2193741;59;1485;-71
2022/02/26 00:11:37;;;;;;;;;;;;;;;;;;2192416;67;1691;-71
2022/02/26 00:14:13;;;;;;;;;;;;;;;;;;2193245;59;2283;-71
2022/02/26 00:16:46;;;;;;;;;;;;;;;;;;2192483;59;1934;-70
2022/02/26 00:19:19;;;;;;;;;;;;;;;;;;2192160;59;2035;-70
2022/02/26 00:21:52;;;;;;;;;;;;;;;;;;2192571;67;1644;-72
2022/02/26 00:24:25;;;;;;;;;;;;;;;;;;2191782;59;2553;-72
2022/02/26 00:26:58;;;;;;;;;;;;;;;;;;2190758;59;2491;-71
2022/02/26 00:29:35;;;;;;;;;;;;;;;;;;2190890;59;1631;-71
2022/02/26 00:32:09;;;;;;;;;;;;;;;;;;2193254;59;1839;-71
2022/02/26 00:34:42;;;;;;;;;;;;;;;;;;2191885;59;1520;-72
2022/02/26 00:37:15;;;;;;;;;;;;;;;;;;2191694;59;2808;-71
2022/02/26 00:39:49;;;;;;;;;;;;;;;;;;2193001;67;1898;-73
2022/02/26 00:42:22;;;;;;;;;;;;;;;;;;2192155;67;1757;-72
2022/02/26 00:44:58;;;;;;;;;;;;;;;;;;2190678;59;2067;-72
2022/02/26 00:47:31;;;;;;;;;;;;;;;;;;2190366;59;1527;-71
2022/02/26 00:50:04;;;;;;;;;;;;;;;;;;2190551;67;2092;-72
2022/02/26 00:52:37;;;;;;;;;;;;;;;;;;2189523;59;1664;-72
2022/02/26 00:55:12;;;;;;;;;;;;;;;;;;2191278;59;2136;-71
2022/02/26 00:57:45;;;;;;;;;;;;;;;;;;2189578;67;1564;-71
2022/02/26 01:00:21;;;;;;;;;;;;;;;;;;2192371;67;2387;-69
2022/02/26 01:02:54;;;;;;;;;;;;;;;;;;2191514;67;1717;-71
2022/02/26 01:05:27;;;;;;;;;;;;;;;;;;2190287;59;1921;-71
2022/02/26 01:08:00;;;;;;;;;;;;;;;;;;2192183;67;1593;-72
2022/02/26 01:10:33;;;;;;;;;;;;;;;;;;2190857;67;1612;-70
2022/02/26 01:13:08;;;;;;;;;;;;;;;;;;2191753;67;1675;-71
2022/02/26 01:15:43;;;;;;;;;;;;;;;;;;2191030;59;2200;-72
2022/02/26 01:18:17;;;;;;;;;;;;;;;;;;2189625;59;2185;-72
2022/02/26 01:20:50;;;;;;;;;;;;;;;;;;2192006;67;1860;-72
2022/02/26 01:23:23;;;;;;;;;;;;;;;;;;2191830;67;1505;-71
2022/02/26 01:25:56;;;;;;;;;;;;;;;;;;2190595;67;2757;-71
2022/02/26 01:28:29;;;;;;;;;;;;;;;;;;2189678;59;2465;-71
2022/02/26 01:31:06;;;;;;;;;;;;;;;;;;2190326;59;1537;-72
2022/02/26 01:33:39;;;;;;;;;;;;;;;;;;2191275;59;1511;-71
2022/02/26 01:36:12;;;;;;;;;;;;;;;;;;2189945;59;1765;-71
2022/02/26 01:38:46;;;;;;;;;;;;;;;;;;2190553;59;1525;-71
2022/02/26 01:41:19;;;;;;;;;;;;;;;;;;2189338;59;2211;-73
2022/02/26 01:43:52;;;;;;;;;;;;;;;;;;2191461;67;1729;-72
2022/02/26 01:46:28;;;;;;;;;;;;;;;;;;2191126;67;1988;-71
2022/02/26 01:49:01;;;;;;;;;;;;;;;;;;2191008;59;1494;-70
2022/02/26 01:51:35;;;;;;;;;;;;;;;;;;2191103;67;1522;-69
2022/02/26 01:54:08;;;;;;;;;;;;;;;;;;2192169;67;1625;-71
2022/02/26 01:56:41;;;;;;;;;;;;;;;;;;2189135;59;1957;-71
2022/02/26 01:59:14;;;;;;;;;;;;;;;;;;2191995;67;1694;-71
2022/02/26 02:01:50;;;;;;;;;;;;;;;;;;2191574;59;2190;-71
2022/02/26 02:04:24;;;;;;;;;;;;;;;;;;2191698;67;1869;-71
2022/02/26 02:06:57;;;;;;;;;;;;;;;;;;2191724;67;1988;-72
2022/02/26 02:09:30;;;;;;;;;;;;;;;;;;2190763;67;1539;-69
2022/02/26 02:12:03;;;;;;;;;;;;;;;;;;2191531;67;1611;-72
2022/02/26 02:14:37;;;;;;;;;;;;;;;;;;2192045;59;1614;-73
2022/02/26 02:17:13;;;;;;;;;;;;;;;;;;2191475;59;2070;-71
2022/02/26 02:19:46;;;;;;;;;;;;;;;;;;2191288;59;2119;-72
2022/02/26 02:22:22;;;;;;;;;;;;;;;;;;2191823;67;1628;-71
2022/02/26 02:24:55;;;;;;;;;;;;;;;;;;2193022;59;1942;-72
2022/02/26 02:27:28;;;;;;;;;;;;;;;;;;2189040;59;2861;-70
2022/02/26 02:30:01;;;;;;;;;;;;;;;;;;2190330;67;3491;-71
2022/02/26 02:32:35;;;;;;;;;;;;;;;;;;2191452;67;1514;-71
2022/02/26 02:35:08;;;;;;;;;;;;;;;;;;2191830;59;2022;-71
2022/02/26 02:37:44;;;;;;;;;;;;;;;;;;2191086;67;1662;-72
2022/02/26 02:40:17;;;;;;;;;;;;;;;;;;2193000;67;1827;-71
2022/02/26 02:42:50;;;;;;;;;;;;;;;;;;2191762;59;1960;-71
2022/02/26 02:45:23;;;;;;;;;;;;;;;;;;2190812;59;1948;-70
2022/02/26 02:47:57;;;;;;;;;;;;;;;;;;2190638;59;2591;-73
2022/02/26 02:50:31;;;;;;;;;;;;;;;;;;2191901;67;1762;-71
2022/02/26 02:53:07;;;;;;;;;;;;;;;;;;2193357;67;1570;-71
2022/02/26 02:55:40;;;;;;;;;;;;;;;;;;2190732;59;2000;-72
2022/02/26 02:58:13;;;;;;;;;;;;;;;;;;2190888;67;2138;-71
2022/02/26 03:00:46;;;;;;;;;;;;;;;;;;2194002;67;2422;-72
2022/02/26 03:03:20;;;;;;;;;;;;;;;;;;2193619;67;1701;-70
2022/02/26 03:05:53;;;;;;;;;;;;;;;;;;2192968;59;1949;-71
2022/02/26 03:08:29;;;;;;;;;;;;;;;;;;2192552;59;1663;-72
2022/02/26 03:11:02;;;;;;;;;;;;;;;;;;2192543;67;1758;-72
2022/02/26 03:13:37;;;;;;;;;;;;;;;;;;2191747;59;1696;-71
2022/02/26 03:16:10;;;;;;;;;;;;;;;;;;2191581;59;2688;-72
2022/02/26 03:18:44;;;;;;;;;;;;;;;;;;2192869;59;2156;-71
2022/02/26 03:21:17;;;;;;;;;;;;;;;;;;2192541;67;1731;-71
2022/02/26 03:23:53;;;;;;;;;;;;;;;;;;2193771;59;1653;-72
2022/02/26 03:26:26;;;;;;;;;;;;;;;;;;2192676;67;1952;-72
2022/02/26 03:29:00;;;;;;;;;;;;;;;;;;2189973;59;2789;-73
2022/02/26 03:31:33;;;;;;;;;;;;;;;;;;2192088;59;1687;-73
2022/02/26 03:34:06;;;;;;;;;;;;;;;;;;2191501;67;1774;-74
2022/02/26 03:36:39;;;;;;;;;;;;;;;;;;2191254;59;1975;-72
2022/02/26 03:39:15;;;;;;;;;;;;;;;;;;2192282;67;1657;-71
2022/02/26 03:41:48;;;;;;;;;;;;;;;;;;2191473;59;1615;-71
2022/02/26 03:44:21;;;;;;;;;;;;;;;;;;2192811;67;1538;-72
2022/02/26 03:46:55;;;;;;;;;;;;;;;;;;2191663;67;1992;-72
2022/02/26 03:49:28;;;;;;;;;;;;;;;;;;2191507;59;1666;-71
2022/02/26 03:52:02;;;;;;;;;;;;;;;;;;2191428;67;1795;-70
2022/02/26 03:54:38;;;;;;;;;;;;;;;;;;2193233;67;1556;-70
2022/02/26 03:57:11;;;;;;;;;;;;;;;;;;2190860;59;2872;-72
2022/02/26 03:59:44;;;;;;;;;;;;;;;;;;2193111;59;2160;-71
2022/02/26 04:02:18;;;;;;;;;;;;;;;;;;2192250;67;1561;-71
2022/02/26 04:04:51;;;;;;;;;;;;;;;;;;2191706;59;1568;-72
2022/02/26 04:07:24;;;;;;;;;;;;;;;;;;2191402;59;1992;-72
2022/02/26 04:10:00;;;;;;;;;;;;;;;;;;2191121;67;1637;-71
2022/02/26 04:12:33;;;;;;;;;;;;;;;;;;2191293;67;1669;-71
2022/02/26 04:15:07;;;;;;;;;;;;;;;;;;2190358;59;2584;-71
2022/02/26 04:17:40;;;;;;;;;;;;;;;;;;2191010;67;1785;-72
2022/02/26 04:20:13;;;;;;;;;;;;;;;;;;2190777;59;2574;-72
2022/02/26 04:22:47;;;;;;;;;;;;;;;;;;2191132;59;1867;-72
2022/02/26 04:25:23;;;;;;;;;;;;;;;;;;2192116;59;1838;-73
2022/02/26 04:27:56;;;;;;;;;;;;;;;;;;2190128;59;1928;-71
2022/02/26 04:30:29;;;;;;;;;;;;;;;;;;2190954;59;2416;-71
2022/02/26 04:33:03;;;;;;;;;;;;;;;;;;2191400;59;1747;-71
2022/02/26 04:35:36;;;;;;;;;;;;;;;;;;2191357;59;2061;-71
2022/02/26 04:38:09;;;;;;;;;;;;;;;;;;2191392;67;1789;-72
2022/02/26 04:40:45;;;;;;;;;;;;;;;;;;2190245;67;1905;-72
2022/02/26 04:43:18;;;;;;;;;;;;;;;;;;2192168;59;1922;-71
2022/02/26 04:45:51;;;;;;;;;;;;;;;;;;2191251;67;1986;-70
2022/02/26 04:48:24;;;;;;;;;;;;;;;;;;2190242;59;1826;-71
2022/02/26 04:50:58;;;;;;;;;;;;;;;;;;2188616;67;1707;-71
2022/02/26 04:53:31;;;;;;;;;;;;;;;;;;2191194;67;1851;-71
2022/02/26 04:56:09;;;;;;;;;;;;;;;;;;2195991;53;3608;-72
2022/02/26 04:58:43;;;;;;;;;;;;;;;;;;2194492;59;1936;-70
2022/02/26 05:01:16;;;;;;;;;;;;;;;;;;2196312;67;2318;-71
2022/02/26 05:03:50;;;;;;;;;;;;;;;;;;2196593;59;1883;-71
2022/02/26 05:06:23;;;;;;;;;;;;;;;;;;2195366;67;2005;-72
2022/02/26 05:08:56;;;;;;;;;;;;;;;;;;2195017;67;2029;-71
2022/02/26 05:11:33;;;;;;;;;;;;;;;;;;2194511;59;1605;-69
2022/02/26 05:14:06;;;;;;;;;;;;;;;;;;2193962;59;1696;-71
2022/02/26 05:16:40;;;;;;;;;;;;;;;;;;2193705;59;2046;-72
2022/02/26 05:19:13;;;;;;;;;;;;;;;;;;2194716;59;2269;-71
2022/02/26 05:21:49;;;;;;;;;;;;;;;;;;2193939;67;1624;-70
2022/02/26 05:24:23;;;;;;;;;;;;;;;;;;2193833;59;1966;-71
2022/02/26 05:26:59;;;;;;;;;;;;;;;;;;2194914;67;1939;-73
2022/02/26 05:29:32;;;;;;;;;;;;;;;;;;2192984;59;2625;-71
2022/02/26 05:32:06;;;;;;;;;;;;;;;;;;2192853;59;3055;-72
2022/02/26 05:34:40;;;;;;;;;;;;;;;;;;2194571;67;1553;-72
2022/02/26 05:37:13;;;;;;;;;;;;;;;;;;2193515;59;1927;-71
2022/02/26 05:39:47;;;;;;;;;;;;;;;;;;2194010;59;2416;-70
2022/02/26 05:42:23;;;;;;;;;;;;;;;;;;2193697;59;1779;-73
2022/02/26 05:44:57;;;;;;;;;;;;;;;;;;2194970;67;1527;-71
2022/02/26 05:47:30;;;;;;;;;;;;;;;;;;2193736;66;2082;-71
2022/02/26 05:50:03;;;;;;;;;;;;;;;;;;2194254;67;2233;-70
2022/02/26 05:52:37;;;;;;;;;;;;;;;;;;2194776;67;1562;-71
2022/02/26 05:55:10;;;;;;;;;;;;;;;;;;2193771;59;1921;-71
2022/02/26 05:57:46;;;;;;;;;;;;;;;;;;2194138;67;1757;-71
2022/02/26 06:00:20;;;;;;;;;;;;;;;;;;2194169;67;2389;-70
2022/02/26 06:02:53;;;;;;;;;;;;;;;;;;2194353;67;1640;-70
2022/02/26 06:05:26;;;;;;;;;;;;;;;;;;2194861;66;1528;-71
2022/02/26 06:08:00;;;;;;;;;;;;;;;;;;2194162;59;1990;-71
2022/02/26 06:10:33;;;;;;;;;;;;;;;;;;2194507;67;1587;-72
2022/02/26 06:13:12;;;;;;;;;;;;;;;;;;2193943;59;1658;-72
2022/02/26 06:15:46;;;;;;;;;;;;;;;;;;2194501;59;1954;-73
2022/02/26 06:18:19;;;;;;;;;;;;;;;;;;2194769;59;2022;-73
2022/02/26 06:20:52;;;;;;;;;;;;;;;;;;2194479;67;1626;-72
2022/02/26 06:23:26;;;;;;;;;;;;;;;;;;2194677;59;1548;-70
2022/02/26 06:25:59;;;;;;;;;;;;;;;;;;2194996;67;1947;-71
2022/02/26 06:28:35;;;;;;;;;;;;;;;;;;2193077;59;1984;-71
2022/02/26 06:31:09;;;;;;;;;;;;;;;;;;2193273;59;3299;-73
2022/02/26 06:33:45;;;;;;;;;;;;;;;;;;2192427;59;2654;-73
2022/02/26 06:36:18;;;;;;;;;;;;;;;;;;2194052;59;2765;-71
2022/02/26 06:38:51;;;;;;;;;;;;;;;;;;2194634;67;1704;-70
2022/02/26 06:41:25;;;;;;;;;;;;;;;;;;2194504;67;2081;-73
2022/02/26 06:44:02;;;;;;;;;;;;;;;;;;2194150;67;1747;-71
2022/02/26 06:46:37;;;;;;;;;;;;;;;;;;2194303;67;1947;-72
2022/02/26 06:49:11;;;;;;;;;;;;;;;;;;2194025;59;2037;-72
2022/02/26 06:51:45;;;;;;;;;;;;;;;;;;2194131;67;1773;-71
2022/02/26 06:54:18;;;;;;;;;;;;;;;;;;2194739;67;1523;-72
2022/02/26 06:56:52;;;;;;;;;;;;;;;;;;2193856;59;2107;-72
2022/02/26 06:59:29;;;;;;;;;;;;;;;;;;2193042;67;1649;-71
2022/02/26 07:02:02;;;;;;;;;;;;;;;;;;2194636;59;2576;-71
2022/02/26 07:04:35;;;;;;;;;;;;;;;;;;2194870;67;2179;-71
2022/02/26 07:07:09;;;;;;;;;;;;;;;;;;2194106;67;1972;-71
2022/02/26 07:09:42;;;;;;;;;;;;;;;;;;2194396;59;2616;-72
2022/02/26 07:12:16;;;;;;;;;;;;;;;;;;2194112;59;1935;-71
2022/02/26 07:14:52;;;;;;;;;;;;;;;;;;2194583;67;1599;-71
2022/02/26 07:17:25;;;;;;;;;;;;;;;;;;2193798;59;1806;-71
2022/02/26 07:19:59;;;;;;;;;;;;;;;;;;2194022;59;2176;-71
2022/02/26 07:22:32;;;;;;;;;;;;;;;;;;2193944;67;1463;-72
2022/02/26 07:25:06;;;;;;;;;;;;;;;;;;2193512;59;2534;-71
2022/02/26 07:27:39;;;;;;;;;;;;;;;;;;2193733;59;1976;-72
2022/02/26 07:30:15;;;;;;;;;;;;;;;;;;2193771;67;1464;-71
2022/02/26 07:32:49;;;;;;;;;;;;;;;;;;2189081;59;2614;-70
2022/02/26 07:35:23;;;;;;;;;;;;;;;;;;2192916;59;2550;-71
2022/02/26 07:37:56;;;;;;;;;;;;;;;;;;2192669;59;1594;-70
2022/02/26 07:40:29;;;;;;;;;;;;;;;;;;2194477;59;1550;-72
2022/02/26 07:43:03;;;;;;;;;;;;;;;;;;2193711;59;1850;-72
2022/02/26 07:45:39;;;;;;;;;;;;;;;;;;2195091;59;2161;-72
2022/02/26 07:48:12;;;;;;;;;;;;;;;;;;2194262;59;2050;-71
2022/02/26 07:50:45;;;;;;;;;;;;;;;;;;2193855;59;1946;-71
2022/02/26 07:53:20;;;;;;;;;;;;;;;;;;2194946;59;1409;-73
2022/02/26 07:55:54;;;;;;;;;;;;;;;;;;2193206;59;1940;-72
2022/02/26 07:58:27;;;;;;;;;;;;;;;;;;2194150;59;1903;-72
2022/02/26 08:01:03;;;;;;;;;;;;;;;;;;2193703;59;2176;-73
2022/02/26 08:03:36;;;;;;;;;;;;;;;;;;2194639;66;1639;-72
2022/02/26 08:06:10;;;;;;;;;;;;;;;;;;2194941;67;1607;-72
2022/02/26 08:08:43;;;;;;;;;;;;;;;;;;2193433;67;1986;-71
2022/02/26 08:11:16;;;;;;;;;;;;;;;;;;2195109;59;1606;-71
2022/02/26 08:13:50;;;;;;;;;;;;;;;;;;2194765;59;1524;-72
2022/02/26 08:16:26;;;;;;;;;;;;;;;;;;2193025;58;2335;-71
2022/02/26 08:19:00;;;;;;;;;;;;;;;;;;2194448;67;1619;-72
2022/02/26 08:21:35;;;;;;;;;;;;;;;;;;2194235;59;1741;-72
2022/02/26 08:24:08;;;;;;;;;;;;;;;;;;2193840;59;1515;-72
2022/02/26 08:26:42;;;;;;;;;;;;;;;;;;2194175;67;2126;-71
2022/02/26 08:29:15;;;;;;;;;;;;;;;;;;2193794;67;1977;-71
2022/02/26 08:31:51;;;;;;;;;;;;;;;;;;2194021;59;2062;-70
2022/02/26 08:34:25;;;;;;;;;;;;;;;;;;2191474;59;3502;-70
2022/02/26 08:36:58;;;;;;;;;;;;;;;;;;2192423;59;2631;-71
2022/02/26 08:39:32;;;;;;;;;;;;;;;;;;2195783;59;1685;-72
2022/02/26 08:42:05;;;;;;;;;;;;;;;;;;2195578;66;1620;-71
2022/02/26 08:44:40;;;;;;;;;;;;;;;;;;2194752;59;2052;-71
2022/02/26 08:47:16;;;;;;;;;;;;;;;;;;2193992;59;5264;-71
2022/02/26 08:49:49;;;;;;;;;;;;;;;;;;2193799;59;1660;-71
2022/02/26 08:52:23;;;;;;;;;;;;;;;;;;2193578;59;1855;-71
2022/02/26 08:54:59;;;;;;;;;;;;;;;;;;2191703;59;1940;-71
2022/02/26 08:57:32;;;;;;;;;;;;;;;;;;2193273;59;2357;-72
2022/02/26 09:00:06;;;;;;;;;;;;;;;;;;2193740;67;1820;-72
2022/02/26 09:02:43;;;;;;;;;;;;;;;;;;2193725;59;2509;-72
2022/02/26 09:05:17;;;;;;;;;;;;;;;;;;2195087;59;1953;-72
2022/02/26 09:07:50;;;;;;;;;;;;;;;;;;2194187;67;1968;-73
2022/02/26 09:10:24;;;;;;;;;;;;;;;;;;2193929;59;1556;-71
2022/02/26 09:12:57;;;;;;;;;;;;;;;;;;2193401;59;1601;-71
2022/02/26 09:15:31;;;;;;;;;;;;;;;;;;2193296;59;1994;-72
2022/02/26 09:18:07;;;;;;;;;;;;;;;;;;2185629;59;2068;-70
2022/02/26 09:20:40;;;;;;;;;;;;;;;;;;2190578;59;1747;-71
2022/02/26 09:23:13;;;;;;;;;;;;;;;;;;2193766;59;1439;-71
2022/02/26 09:25:46;;;;;;;;;;;;;;;;;;2193853;59;1733;-71
2022/02/26 09:28:20;;;;;;;;;;;;;;;;;;2193667;59;1977;-72
2022/02/26 09:30:53;;;;;;;;;;;;;;;;;;2193678;59;1630;-72
2022/02/26 09:33:30;;;;;;;;;;;;;;;;;;2194035;59;2644;-72
2022/02/26 09:36:04;;;;;;;;;;;;;;;;;;2190116;59;2318;-73
2022/02/26 09:38:40;;;;;;;;;;;;;;;;;;2194091;67;1611;-72
2022/02/26 09:41:13;;;;;;;;;;;;;;;;;;2195140;59;1873;-72
2022/02/26 09:43:47;;;;;;;;;;;;;;;;;;2193930;67;1487;-71
2022/02/26 09:46:20;;;;;;;;;;;;;;;;;;2193853;59;2029;-73
2022/02/26 09:48:56;;;;;;;;;;;;;;;;;;2183858;59;2512;-72
2022/02/26 09:51:30;;;;;;;;;;;;;;;;;;2193819;59;1586;-71
2022/02/26 09:54:03;;;;;;;;;;;;;;;;;;2193797;59;1691;-72
2022/02/26 09:56:36;;;;;;;;;;;;;;;;;;2193816;59;2528;-72
2022/02/26 09:59:11;;;;;;;;;;;;;;;;;;2191328;59;2510;-71
2022/02/26 10:01:57;;;;;;;;;;;;;;;;;;2194003;59;2142;-73
2022/02/26 10:04:33;;;;;;;;;;;;;;;;;;2193787;59;1918;-73
2022/02/26 10:07:10;;;;;;;;;;;;;;;;;;2193323;59;2773;-72
2022/02/26 10:09:44;;;;;;;;;;;;;;;;;;2194305;59;2000;-72
2022/02/26 10:12:26;;;;;;;;;;;;;;;;;;2193506;59;1862;-72
2022/02/26 10:15:00;;;;;;;;;;;;;;;;;;2194708;59;1601;-72
2022/02/26 10:17:35;;;;;;;;;;;;;;;;;;2194887;59;1911;-71
2022/02/26 10:20:16;;;;;;;;;;;;;;;;;;2193906;59;2252;-72
2022/02/26 10:22:52;;;;;;;;;;;;;;;;;;2195174;59;1641;-72
2022/02/26 10:25:26;;;;;;;;;;;;;;;;;;2194492;58;1994;-71
2022/02/26 10:28:00;;;;;;;;;;;;;;;;;;2192774;59;2103;-71
2022/02/26 10:30:35;;;;;;;;;;;;;;;;;;2192105;59;2060;-72
2022/02/26 10:33:10;;;;;;;;;;;;;;;;;;2194453;66;1784;-72
2022/02/26 10:35:48;;;;;;;;;;;;;;;;;;2192794;59;2425;-72
2022/02/26 10:38:23;;;;;;;;;;;;;;;;;;2194067;59;1634;-71
2022/02/26 10:40:57;;;;;;;;;;;;;;;;;;2195624;67;1570;-72
2022/02/26 10:43:41;;;;;;;;;;;;;;;;;;2193181;59;1740;-71
2022/02/26 10:46:25;;;;;;;;;;;;;;;;;;2193838;59;1835;-71
2022/02/26 10:49:00;;;;;;;;;;;;;;;;;;2193644;59;1949;-71
2022/02/26 10:51:36;;;;;;;;;;;;;;;;;;2195192;59;1530;-71
2022/02/26 10:54:11;;;;;;;;;;;;;;;;;;2194856;67;1442;-71
2022/02/26 10:56:45;;;;;;;;;;;;;;;;;;2195533;53;3557;-70
2022/02/26 10:59:29;;;;;;;;;;;;;;;;;;2190094;59;1619;-70
2022/02/26 11:02:03;;;;;;;;;;;;;;;;;;2192694;59;2116;-71
2022/02/26 11:04:37;;;;;;;;;;;;;;;;;;2192142;59;2329;-72
2022/02/26 11:07:13;;;;;;;;;;;;;;;;;;2189727;59;1441;-72
2022/02/26 11:09:47;;;;;;;;;;;;;;;;;;2188981;67;1931;-70
2022/02/26 11:12:24;;;;;;;;;;;;;;;;;;2188305;59;1427;-72
2022/02/26 11:14:58;;;;;;;;;;;;;;;;;;2188233;59;1883;-72
2022/02/26 11:17:33;;;;;;;;;;;;;;;;;;2188957;59;2100;-70
2022/02/26 11:20:08;;;;;;;;;;;;;;;;;;2188517;59;2409;-72
2022/02/26 11:22:44;;;;;;;;;;;;;;;;;;2188594;59;1899;-70
2022/02/26 11:25:18;;;;;;;;;;;;;;;;;;2189109;59;1533;-71
2022/02/26 11:27:52;;;;;;;;;;;;;;;;;;2189718;59;1854;-71
2022/02/26 11:30:27;;;;;;;;;;;;;;;;;;2188040;59;1937;-71
2022/02/26 11:33:00;;;;;;;;;;;;;;;;;;2189576;59;1648;-70
2022/02/26 11:35:33;;;;;;;;;;;;;;;;;;2188212;59;2590;-73
2022/02/26 11:38:10;;;;;;;;;;;;;;;;;;2189627;59;1539;-74
2022/02/26 11:40:43;;;;;;;;;;;;;;;;;;2189874;59;1637;-72
2022/02/26 11:43:32;;;;;;;;;;;;;;;;;;2187998;59;1640;-73
2022/02/26 11:46:21;;;;;;;;;;;;;;;;;;2189611;59;1894;-72
2022/02/26 11:48:55;;;;;;;;;;;;;;;;;;2189512;59;1983;-72
2022/02/26 11:51:35;;;;;;;;;;;;;;;;;;2188923;59;2012;-71
2022/02/26 11:54:16;;;;;;;;;;;;;;;;;;2187655;59;1897;-72
2022/02/26 11:56:52;;;;;;;;;;;;;;;;;;2188613;59;1751;-72
2022/02/26 11:59:37;;;;;;;;;;;;;;;;;;2188040;59;1661;-71
2022/02/26 12:02:11;;;;;;;;;;;;;;;;;;2189117;59;3303;-70
2022/02/26 12:04:45;;;;;;;;;;;;;;;;;;2188590;59;1886;-72
2022/02/26 12:07:30;;;;;;;;;;;;;;;;;;2188048;59;1622;-70
2022/02/26 12:10:07;;;;;;;;;;;;;;;;;;2189401;59;1948;-73
2022/02/26 12:12:41;;;;;;;;;;;;;;;;;;2189228;59;1433;-72
2022/02/26 12:15:16;;;;;;;;;;;;;;;;;;2189559;59;2033;-71
2022/02/26 12:18:12;;;;;;;;;;;;;;;;;;2189069;59;1937;-70
2022/02/26 12:21:00;;;;;;;;;;;;;;;;;;2188638;59;2108;-71
2022/02/26 12:23:35;;;;;;;;;;;;;;;;;;2188060;67;2380;-71
2022/02/26 12:26:12;;;;;;;;;;;;;;;;;;2188668;59;2284;-71
2022/02/26 12:28:46;;;;;;;;;;;;;;;;;;2188161;59;1943;-70
2022/02/26 12:31:20;;;;;;;;;;;;;;;;;;2188262;59;1960;-72
2022/02/26 12:33:53;;;;;;;;;;;;;;;;;;2190054;67;1573;-71
2022/02/26 12:36:26;;;;;;;;;;;;;;;;;;2188763;59;1748;-70
2022/02/26 12:39:02;;;;;;;;;;;;;;;;;;2188752;59;1735;-72
2022/02/26 12:41:41;;;;;;;;;;;;;;;;;;2189172;59;2050;-71
2022/02/26 12:44:15;;;;;;;;;;;;;;;;;;2184439;59;2168;-71
2022/02/26 12:46:48;;;;;;;;;;;;;;;;;;2186106;59;2840;-70
2022/02/26 12:49:22;;;;;;;;;;;;;;;;;;2186597;59;1943;-71
2022/02/26 12:51:57;;;;;;;;;;;;;;;;;;2187569;59;2362;-71
2022/02/26 12:54:30;;;;;;;;;;;;;;;;;;2187343;59;1987;-72
2022/02/26 12:57:06;;;;;;;;;;;;;;;;;;2188146;59;1940;-72
2022/02/26 12:59:40;;;;;;;;;;;;;;;;;;2187057;59;2624;-70
2022/02/26 13:02:13;;;;;;;;;;;;;;;;;;2189041;59;2280;-72
2022/02/26 13:04:46;;;;;;;;;;;;;;;;;;2188506;59;1796;-72
2022/02/26 13:07:19;;;;;;;;;;;;;;;;;;2189012;67;1765;-71
2022/02/26 13:09:54;;;;;;;;;;;;;;;;;;2189132;59;1971;-71
2022/02/26 13:12:32;;;;;;;;;;;;;;;;;;2188410;59;1826;-71
2022/02/26 13:15:07;;;;;;;;;;;;;;;;;;2187379;59;2026;-70
2022/02/26 13:17:41;;;;;;;;;;;;;;;;;;2187758;59;2140;-72
2022/02/26 13:20:22;;;;;;;;;;;;;;;;;;2189499;59;2243;-70
2022/02/26 13:22:57;;;;;;;;;;;;;;;;;;2186523;59;2219;-70
2022/02/26 13:25:31;;;;;;;;;;;;;;;;;;2188365;59;1887;-70
2022/02/26 13:28:08;;;;;;;;;;;;;;;;;;2187723;59;1988;-71
2022/02/26 13:30:41;;;;;;;;;;;;;;;;;;2187310;59;2031;-71
2022/02/26 13:33:14;;;;;;;;;;;;;;;;;;2188821;67;1533;-71
2022/02/26 13:35:47;;;;;;;;;;;;;;;;;;2187708;59;2686;-70
2022/02/26 13:38:21;;;;;;;;;;;;;;;;;;2189542;67;1952;-72
2022/02/26 13:40:55;;;;;;;;;;;;;;;;;;2187676;59;2004;-70
2022/02/26 13:43:31;;;;;;;;;;;;;;;;;;2187275;67;1668;-72
2022/02/26 13:46:04;;;;;;;;;;;;;;;;;;2188405;59;1779;-70
2022/02/26 13:48:44;;;;;;;;;;;;;;;;;;2188071;59;2313;-71
2022/02/26 13:51:17;;;;;;;;;;;;;;;;;;2188085;59;1937;-70
2022/02/26 13:53:51;;;;;;;;;;;;;;;;;;2187340;67;1664;-70
2022/02/26 13:56:28;;;;;;;;;;;;;;;;;;2187628;59;1832;-72
2022/02/26 13:59:11;;;;;;;;;;;;;;;;;;2188357;67;1666;-70
2022/02/26 14:01:54;;;;;;;;;;;;;;;;;;2187642;59;1982;-72
2022/02/26 14:04:29;;;;;;;;;;;;;;;;;;2188796;59;1890;-70
2022/02/26 14:07:03;;;;;;;;;;;;;;;;;;2188151;67;1928;-70
2022/02/26 14:09:41;;;;;;;;;;;;;;;;;;2187881;67;2207;-71
2022/02/26 14:12:15;;;;;;;;;;;;;;;;;;2188096;59;1678;-71
2022/02/26 14:14:51;;;;;;;;;;;;;;;;;;2187264;59;2372;-71
2022/02/26 14:17:24;;;;;;;;;;;;;;;;;;2188912;59;1992;-70
2022/02/26 14:20:00;;;;;;;;;;;;;;;;;;2189703;59;2203;-70
2022/02/26 14:22:35;;;;;;;;;;;;;;;;;;2188195;59;1526;-70
2022/02/26 14:25:09;;;;;;;;;;;;;;;;;;2188704;59;1498;-70
2022/02/26 14:27:46;;;;;;;;;;;;;;;;;;2189355;59;1754;-72
2022/02/26 14:30:23;;;;;;;;;;;;;;;;;;2188636;59;1946;-71
2022/02/26 14:32:57;;;;;;;;;;;;;;;;;;2188981;59;1824;-71
2022/02/26 14:35:32;;;;;;;;;;;;;;;;;;2189714;59;2175;-70
2022/02/26 14:38:05;;;;;;;;;;;;;;;;;;2189156;67;1764;-70
2022/02/26 14:40:39;;;;;;;;;;;;;;;;;;2189486;67;1836;-72
2022/02/26 14:43:13;;;;;;;;;;;;;;;;;;2188016;59;2142;-71
2022/02/26 14:45:51;;;;;;;;;;;;;;;;;;2189173;59;2098;-70
2022/02/26 14:48:24;;;;;;;;;;;;;;;;;;2189835;59;2834;-71
2022/02/26 14:50:57;;;;;;;;;;;;;;;;;;2190288;67;1948;-72
2022/02/26 14:53:31;;;;;;;;;;;;;;;;;;2188184;59;2625;-71
2022/02/26 14:56:05;;;;;;;;;;;;;;;;;;2188290;59;2681;-71
2022/02/26 14:58:38;;;;;;;;;;;;;;;;;;2188611;67;1847;-71
2022/02/26 15:01:14;;;;;;;;;;;;;;;;;;2189929;59;2244;-72
2022/02/26 15:03:47;;;;;;;;;;;;;;;;;;2188180;67;2082;-72
2022/02/26 15:06:20;;;;;;;;;;;;;;;;;;2188672;67;1729;-70
2022/02/26 15:08:53;;;;;;;;;;;;;;;;;;2189788;59;2076;-72
2022/02/26 15:11:26;;;;;;;;;;;;;;;;;;2188294;63;1939;-72
2022/02/26 15:13:59;;;;;;;;;;;;;;;;;;2188577;67;1749;-72
2022/02/26 15:16:36;;;;;;;;;;;;;;;;;;2188695;59;2070;-72
2022/02/26 15:19:09;;;;;;;;;;;;;;;;;;2188214;59;2067;-69
2022/02/26 15:21:42;;;;;;;;;;;;;;;;;;2188551;59;2093;-73
2022/02/26 15:24:15;;;;;;;;;;;;;;;;;;2189573;59;1502;-70
2022/02/26 15:26:48;;;;;;;;;;;;;;;;;;2188214;59;1920;-70
2022/02/26 15:29:21;;;;;;;;;;;;;;;;;;2189765;67;1917;-72
2022/02/26 15:31:57;;;;;;;;;;;;;;;;;;2187851;59;1992;-72
2022/02/26 15:34:30;;;;;;;;;;;;;;;;;;2188711;67;1841;-71
2022/02/26 15:37:04;;;;;;;;;;;;;;;;;;2188105;59;1863;-72
2022/02/26 15:39:37;;;;;;;;;;;;;;;;;;2185838;59;1869;-70
2022/02/26 15:42:10;;;;;;;;;;;;;;;;;;2187971;67;1753;-70
2022/02/26 15:44:43;;;;;;;;;;;;;;;;;;2189475;59;2211;-71
2022/02/26 15:47:19;;;;;;;;;;;;;;;;;;2188783;59;1933;-70
2022/02/26 15:49:52;;;;;;;;;;;;;;;;;;2188782;59;2603;-71
2022/02/26 15:52:25;;;;;;;;;;;;;;;;;;2188244;67;1511;-71
2022/02/26 15:54:59;;;;;;;;;;;;;;;;;;2189318;67;1796;-72
2022/02/26 15:57:32;;;;;;;;;;;;;;;;;;2189271;59;2837;-70
2022/02/26 16:00:05;;;;;;;;;;;;;;;;;;2189051;59;2253;-70
2022/02/26 16:02:41;;;;;;;;;;;;;;;;;;2188558;59;2504;-72
2022/02/26 16:05:14;;;;;;;;;;;;;;;;;;2189612;67;1881;-71
2022/02/26 16:07:48;;;;;;;;;;;;;;;;;;2189682;67;1897;-71
2022/02/26 16:10:21;;;;;;;;;;;;;;;;;;2189077;67;1933;-71
2022/02/26 16:12:54;;;;;;;;;;;;;;;;;;2190493;59;1790;-70
2022/02/26 16:15:27;;;;;;;;;;;;;;;;;;2189222;59;1871;-70
2022/02/26 16:18:03;;;;;;;;;;;;;;;;;;2188982;59;2162;-71
2022/02/26 16:20:36;;;;;;;;;;;;;;;;;;2190982;67;1960;-69
2022/02/26 16:23:09;;;;;;;;;;;;;;;;;;2190796;59;2119;-70
2022/02/26 16:25:43;;;;;;;;;;;;;;;;;;2189794;59;2100;-72
2022/02/26 16:28:19;;;;;;;;;;;;;;;;;;2189993;59;1754;-69
2022/02/26 16:30:54;;;;;;;;;;;;;;;;;;2188472;67;1928;-71
2022/02/26 16:33:32;;;;;;;;;;;;;;;;;;2189548;59;1937;-71
2022/02/26 16:36:05;;;;;;;;;;;;;;;;;;2188542;59;2039;-71
2022/02/26 16:38:39;;;;;;;;;;;;;;;;;;2189810;59;1934;-72
2022/02/26 16:41:12;;;;;;;;;;;;;;;;;;2187716;67;1595;-70
2022/02/26 16:43:46;;;;;;;;;;;;;;;;;;2189384;59;1895;-72
2022/02/26 16:46:19;;;;;;;;;;;;;;;;;;2189670;67;1604;-70
2022/02/26 16:48:55;;;;;;;;;;;;;;;;;;2188673;59;2606;-71
2022/02/26 16:51:28;;;;;;;;;;;;;;;;;;2188009;59;3014;-72
2022/02/26 16:54:01;;;;;;;;;;;;;;;;;;2188462;67;1573;-72
2022/02/26 16:56:35;;;;;;;;;;;;;;;;;;2192950;53;3499;-74
2022/02/26 16:59:08;;;;;;;;;;;;;;;;;;2194069;59;1494;-74
2022/02/26 17:01:41;;;;;;;;;;;;;;;;;;2194789;59;2083;-74
2022/02/26 17:04:17;;;;;;;;;;;;;;;;;;2196084;59;1908;-73
2022/02/26 17:06:50;;;;;;;;;;;;;;;;;;2195078;59;1658;-74
2022/02/26 17:09:23;;;;;;;;;;;;;;;;;;2195083;59;1705;-73
2022/02/26 17:11:56;;;;;;;;;;;;;;;;;;2193365;67;2017;-74
2022/02/26 17:14:30;;;;;;;;;;;;;;;;;;2194286;59;2255;-74
2022/02/26 17:17:03;;;;;;;;;;;;;;;;;;2194312;59;1965;-73
2022/02/26 17:19:41;;;;;;;;;;;;;;;;;;2193311;59;2151;-74
2022/02/26 17:22:14;;;;;;;;;;;;;;;;;;2193668;59;1554;-74
2022/02/26 17:24:47;;;;;;;;;;;;;;;;;;2195051;59;2079;-74
2022/02/26 17:27:21;;;;;;;;;;;;;;;;;;2195237;67;2158;-73
2022/02/26 17:29:54;;;;;;;;;;;;;;;;;;2194069;59;1870;-74
2022/02/26 17:32:27;;;;;;;;;;;;;;;;;;2194036;67;1941;-75
2022/02/26 17:35:03;;;;;;;;;;;;;;;;;;2195337;67;1627;-74
2022/02/26 17:37:37;;;;;;;;;;;;;;;;;;2193752;59;2024;-74
2022/02/26 17:40:10;;;;;;;;;;;;;;;;;;2194569;67;2493;-74
2022/02/26 17:42:43;;;;;;;;;;;;;;;;;;2194614;59;1657;-74
2022/02/26 17:45:17;;;;;;;;;;;;;;;;;;2193044;59;2498;-74
2022/02/26 17:47:50;;;;;;;;;;;;;;;;;;2195017;59;2722;-74
2022/02/26 17:50:25;;;;;;;;;;;;;;;;;;2193592;59;2789;-74
2022/02/26 17:52:59;;;;;;;;;;;;;;;;;;2192314;59;2324;-74